Gene Huffty — WDD9076 — position and weather

sailwx.info

Track history (hours):
 
Tides and Currents Weather Stations Pressure Air Temp Water Temp Dewpoint Dewpoint Depression Visibility Wind Speed Wind Dir Waves Ship Positions

Gene Huffty

Owner: Ingram Barge Company LLC, Nashville, TN. More information available from US FCC via Universal Licensing System and Coast Guard Vessel Documentation Center.

Last reported at 2018-Feb-21 22:04 UTC. Time now 2018-Feb-23 00:49 UTC.
Position N 29°50' W 091°59'.

Length 19 m; draft 3 m.

Type: Towing. MMSI: 367306470.

Date/timePositionNaut miles runAvg speedWind from/ knotsBaromVisibWave heightAir tempDewpointWater temp
2018-Feb-21 22:04N 29°50' W 091°59'0 3.2
2018-Feb-21 22:00N 29°50' W 091°59'2 3.3
2018-Feb-21 21:30N 29°50' W 092°01'2 3.3
2018-Feb-21 21:00N 29°49' W 092°02'2 3.1
2018-Feb-21 20:30N 29°48' W 092°04'2 3.5
2018-Feb-21 20:00N 29°48' W 092°06'1 1.7
2018-Feb-21 19:30N 29°47' W 092°07'0 0.0
2018-Feb-21 19:00N 29°47' W 092°07'0 0.0
2018-Feb-21 18:30N 29°47' W 092°07'0 0.0
2018-Feb-21 18:00N 29°47' W 092°07'0 0.0
2018-Feb-21 17:30N 29°47' W 092°07'0 0.0
2018-Feb-21 17:00N 29°47' W 092°07'0 0.0
2018-Feb-21 16:30N 29°47' W 092°07'0 0.0
2018-Feb-21 16:00N 29°47' W 092°07'0 0.0
2018-Feb-21 15:27N 29°47' W 092°07'0 0.0
2018-Feb-21 14:59N 29°47' W 092°07'0 0.0
2018-Feb-21 14:30N 29°47' W 092°07'0 0.0
2018-Feb-21 14:00N 29°47' W 092°07'0 0.0
2018-Feb-21 13:30N 29°47' W 092°07'0 0.0
2018-Feb-21 13:00N 29°47' W 092°07'0 0.0
2018-Feb-21 12:30N 29°47' W 092°07'0 0.0
2018-Feb-21 12:00N 29°47' W 092°07'0 0.0
2018-Feb-21 11:30N 29°47' W 092°07'0 0.0
2018-Feb-21 11:00N 29°47' W 092°07'0 0.0
2018-Feb-21 10:30N 29°47' W 092°07'0 0.0
2018-Feb-21 10:00N 29°47' W 092°07'0 0.0
2018-Feb-21 09:31N 29°47' W 092°07'0 0.0
2018-Feb-21 09:00N 29°47' W 092°07'0 0.0
2018-Feb-21 08:30N 29°47' W 092°07'0 0.0
2018-Feb-21 08:00N 29°47' W 092°07'0 0.0
2018-Feb-21 07:29N 29°47' W 092°07'0 0.0
2018-Feb-21 07:00N 29°47' W 092°07'0 0.0
2018-Feb-21 06:30N 29°47' W 092°07'0 0.0
2018-Feb-21 06:00N 29°47' W 092°07'0 0.0
2018-Feb-21 05:30N 29°47' W 092°07'0 0.0
2018-Feb-21 05:00N 29°47' W 092°07'0 0.0
2018-Feb-21 04:30N 29°47' W 092°07'1 1.3
2018-Feb-21 04:01N 29°47' W 092°08'2 4.3
2018-Feb-21 03:30N 29°47' W 092°10'2 4.1
2018-Feb-21 03:00N 29°47' W 092°12'1 1.3
2018-Feb-21 02:30N 29°47' W 092°13'2 3.4
2018-Feb-21 02:00N 29°48' W 092°15'2 3.4
2018-Feb-21 01:30N 29°49' W 092°17'2 4.3
2018-Feb-21 01:00N 29°50' W 092°18'2 4.4
2018-Feb-21 00:30N 29°51' W 092°21'36 3.6
2018-Feb-20 14:26N 29°56' W 093°02'1 3.1
2018-Feb-20 14:00N 29°56' W 093°04'2 3.4
2018-Feb-20 13:28N 29°56' W 093°06'2 3.5
2018-Feb-20 13:01N 29°56' W 093°08'2 3.3
2018-Feb-20 12:31N 29°56' W 093°10'2 3.5
2018-Feb-20 12:00N 29°58' W 093°11'2 3.1
2018-Feb-20 11:31N 29°59' W 093°12'1 2.2
2018-Feb-20 11:01N 29°60' W 093°13'1 2.8
2018-Feb-20 10:30N 30°01' W 093°14'1 2.9
2018-Feb-20 10:01N 30°02' W 093°15'1 2.7
2018-Feb-20 09:30N 30°03' W 093°16'2 3.0
2018-Feb-20 09:00N 30°05' W 093°17'1 2.5
2018-Feb-20 08:30N 30°05' W 093°18'1 1.8
2018-Feb-20 07:46N 30°06' W 093°19'0 0.2
2018-Feb-20 07:30N 30°06' W 093°19'0 0.0
2018-Feb-20 07:01N 30°06' W 093°19'0 0.0
2018-Feb-20 06:31N 30°06' W 093°19'0 0.0
2018-Feb-20 06:00N 30°06' W 093°19'0 0.0
2018-Feb-20 05:31N 30°06' W 093°19'0 0.0
2018-Feb-20 05:00N 30°06' W 093°19'2 3.2
2018-Feb-20 04:31N 30°05' W 093°20'1 3.0
2018-Feb-20 04:01N 30°04' W 093°21'1 2.6
2018-Feb-20 03:31N 30°04' W 093°23'1 2.9
2018-Feb-20 03:01N 30°04' W 093°24'2 3.0
2018-Feb-20 02:30N 30°04' W 093°26'1 3.0
2018-Feb-20 02:01N 30°04' W 093°28'2 3.1
2018-Feb-20 01:30N 30°04' W 093°29'1 3.0
2018-Feb-20 01:01N 30°04' W 093°31'2 3.1
2018-Feb-20 00:30N 30°04' W 093°33'1 2.4
2018-Feb-20 00:01N 30°04' W 093°34'2 3.6
2018-Feb-19 23:30N 30°04' W 093°36'2 3.9
2018-Feb-19 23:00N 30°04' W 093°39'2 3.9
2018-Feb-19 22:30N 30°04' W 093°41'2 4.1
2018-Feb-19 22:01N 30°03' W 093°43'2 3.6
2018-Feb-19 21:30N 30°02' W 093°44'2 4.1
2018-Feb-19 21:01N 30°00' W 093°46'2 4.0
2018-Feb-19 20:30N 29°59' W 093°48'2 4.0
2018-Feb-19 20:01N 29°58' W 093°50'1 2.9
2018-Feb-19 19:31N 29°57' W 093°51'2 3.2
2018-Feb-19 19:00N 29°56' W 093°52'0 0.0
2018-Feb-19 18:30N 29°56' W 093°52'0 0.0
2018-Feb-19 18:01N 29°56' W 093°52'0 0.0
2018-Feb-19 17:31N 29°56' W 093°52'0 0.0
2018-Feb-19 17:01N 29°56' W 093°52'0 0.0
2018-Feb-19 16:31N 29°56' W 093°52'0 0.0
2018-Feb-19 16:01N 29°56' W 093°52'0 0.0
2018-Feb-19 15:31N 29°56' W 093°52'0 0.4
2018-Feb-19 15:01N 29°56' W 093°52'3 5.6
2018-Feb-19 14:30N 29°54' W 093°54'3 6.2
2018-Feb-19 14:01N 29°51' W 093°57'3 5.1
2018-Feb-19 13:31N 29°49' W 093°58'2 4.3
2018-Feb-19 13:00N 29°48' W 094°00'2 4.2
2018-Feb-19 12:30N 29°47' W 094°02'2 4.1
2018-Feb-19 12:01N 29°45' W 094°04'2 4.4
2018-Feb-19 11:30N 29°44' W 094°06'2 3.1
2018-Feb-19 11:00N 29°43' W 094°07'0 0.1
2018-Feb-19 10:28N 29°43' W 094°07'0 0.0
2018-Feb-19 10:00N 29°43' W 094°07'0 0.0
2018-Feb-19 09:30N 29°43' W 094°07'0 0.0
2018-Feb-19 09:01N 29°43' W 094°07'0 0.0
2018-Feb-19 08:29N 29°43' W 094°07'0 0.0
2018-Feb-19 08:00N 29°43' W 094°07'0 0.0
2018-Feb-19 07:30N 29°43' W 094°07'0 0.0
2018-Feb-19 06:52N 29°43' W 094°07'0 0.0
2018-Feb-19 06:30N 29°43' W 094°07'0 0.0
2018-Feb-19 06:00N 29°43' W 094°07'0 0.0
2018-Feb-19 05:31N 29°43' W 094°07'0 0.0
2018-Feb-19 05:00N 29°43' W 094°07'0 0.0
2018-Feb-19 04:28N 29°43' W 094°07'0 0.0
2018-Feb-19 03:58N 29°43' W 094°07'0 0.0
2018-Feb-19 03:30N 29°43' W 094°07'0 0.0
2018-Feb-19 03:00N 29°43' W 094°07'0 0.0
2018-Feb-19 02:31N 29°43' W 094°07'0 0.0
2018-Feb-19 02:01N 29°43' W 094°07'0 0.0
2018-Feb-19 01:30N 29°43' W 094°07'0 0.0
2018-Feb-19 01:00N 29°43' W 094°07'0 0.0
2018-Feb-19 00:31N 29°43' W 094°07'0 0.0
2018-Feb-19 00:01N 29°43' W 094°07'0 0.0
2018-Feb-18 23:31N 29°43' W 094°07'1 2.3
2018-Feb-18 23:00N 29°42' W 094°08'2 3.0
2018-Feb-18 22:30N 29°41' W 094°10'2 3.2
2018-Feb-18 22:00N 29°41' W 094°12'2 3.4
2018-Feb-18 21:30N 29°40' W 094°13'2 3.0
2018-Feb-18 21:00N 29°40' W 094°15'2 3.2
2018-Feb-18 20:30N 29°39' W 094°16'2 3.2
2018-Feb-18 20:00N 29°38' W 094°18'2 3.4
2018-Feb-18 19:30N 29°37' W 094°20'2 3.4
2018-Feb-18 19:00N 29°36' W 094°22'2 3.1
2018-Feb-18 18:29N 29°36' W 094°23'1 2.4
2018-Feb-18 17:59N 29°36' W 094°25'1 2.2
2018-Feb-18 17:28N 29°35' W 094°25'1 2.0
2018-Feb-18 17:00N 29°34' W 094°26'0 0.0
2018-Feb-18 16:30N 29°34' W 094°26'0 0.0
2018-Feb-18 15:55N 29°34' W 094°26'0 0.0
2018-Feb-18 15:28N 29°34' W 094°26'0 0.0
2018-Feb-18 12:56N 29°34' W 094°26'0 0.0
2018-Feb-18 09:28N 29°34' W 094°26'0 0.0
2018-Feb-18 08:11N 29°34' W 094°26'0 0.0
2018-Feb-18 07:56N 29°34' W 094°26'0 0.0
2018-Feb-18 07:29N 29°34' W 094°26'0 0.0
2018-Feb-18 02:25N 29°34' W 094°26'0 0.0
2018-Feb-18 01:59N 29°34' W 094°26'0 0.0
2018-Feb-18 01:30N 29°34' W 094°26'0 0.0
2018-Feb-18 01:00N 29°34' W 094°26'0 0.0
2018-Feb-18 00:29N 29°34' W 094°26'0 0.0
2018-Feb-17 23:59N 29°34' W 094°26'0 0.4
2018-Feb-17 23:28N 29°34' W 094°26'1 2.4
2018-Feb-17 23:00N 29°34' W 094°27'2 4.0
2018-Feb-17 22:30N 29°32' W 094°29'2 3.4
2018-Feb-17 21:58N 29°31' W 094°30'2 4.5
2018-Feb-17 21:27N 29°30' W 094°33'11 0.9
2018-Feb-17 08:43N 29°25' W 094°44'0 0.0
2018-Feb-17 05:58N 29°25' W 094°44'0 0.0
2018-Feb-17 04:47N 29°25' W 094°44'0 0.0
2018-Feb-17 04:01N 29°25' W 094°44'0 0.0
2018-Feb-17 03:58N 29°25' W 094°44'0 0.0
2018-Feb-17 02:16N 29°25' W 094°44'0 0.0
2018-Feb-17 01:55N 29°25' W 094°44'0 0.0
2018-Feb-17 01:25N 29°25' W 094°44'1 0.3
2018-Feb-16 23:36N 29°24' W 094°45'0 2.6
2018-Feb-16 23:30N 29°24' W 094°45'2 4.5
2018-Feb-16 22:57N 29°22' W 094°47'11 3.7
2018-Feb-16 20:05N 29°32' W 094°53'0 5.4
2018-Feb-16 20:00N 29°32' W 094°54'3 5.7
2018-Feb-16 19:30N 29°34' W 094°56'3 5.7
2018-Feb-16 19:00N 29°37' W 094°57'2 5.1
2018-Feb-16 18:30N 29°39' W 094°58'3 5.8
2018-Feb-16 18:00N 29°42' W 094°60'3 5.4
2018-Feb-16 17:30N 29°44' W 095°02'3 5.4
2018-Feb-16 17:00N 29°45' W 095°04'2 3.3
2018-Feb-16 16:30N 29°47' W 095°04'0 0.1
2018-Feb-16 15:59N 29°47' W 095°04'2 4.2
2018-Feb-16 15:28N 29°46' W 095°06'1 1.1
2018-Feb-16 15:00N 29°46' W 095°05'2 3.6
2018-Feb-16 14:30N 29°47' W 095°04'0 0.2
2018-Feb-16 12:20N 29°47' W 095°05'0 0.4
2018-Feb-16 11:23N 29°46' W 095°05'0 0.0
2018-Feb-16 10:55N 29°46' W 095°05'0 0.0
2018-Feb-16 09:16N 29°46' W 095°05'0 0.0
2018-Feb-16 09:00N 29°46' W 095°05'0 0.0
2018-Feb-16 07:39N 29°46' W 095°05'0 0.0
2018-Feb-16 07:30N 29°46' W 095°05'0 0.0
2018-Feb-16 07:00N 29°46' W 095°05'0 0.0
2018-Feb-16 06:26N 29°46' W 095°05'0 0.0
2018-Feb-16 05:58N 29°46' W 095°05'0 0.0
2018-Feb-16 05:29N 29°46' W 095°05'0 0.0
2018-Feb-16 05:00N 29°46' W 095°05'0 0.0
2018-Feb-16 04:26N 29°46' W 095°05'0 0.0
2018-Feb-16 04:00N 29°46' W 095°05'0 0.0
2018-Feb-16 03:20N 29°46' W 095°05'0 0.0
2018-Feb-16 02:51N 29°46' W 095°05'0 0.0
2018-Feb-16 02:20N 29°46' W 095°05'0 0.0
2018-Feb-16 02:00N 29°46' W 095°05'0 0.1
2018-Feb-16 01:28N 29°46' W 095°05'0 0.0
2018-Feb-16 00:45N 29°46' W 095°05'0 0.0
2018-Feb-15 19:36N 29°46' W 095°05'0 0.0
2018-Feb-15 10:20N 29°46' W 095°05'0 0.0
2018-Feb-15 09:27N 29°46' W 095°05'0 0.0
2018-Feb-15 08:59N 29°46' W 095°05'0 0.0
2018-Feb-15 08:29N 29°46' W 095°05'0 0.0
2018-Feb-15 07:59N 29°46' W 095°05'0 0.0
2018-Feb-15 07:29N 29°46' W 095°05'0 0.0
2018-Feb-15 06:48N 29°46' W 095°05'0 0.0
2018-Feb-15 06:13N 29°46' W 095°05'0 0.0
2018-Feb-15 06:00N 29°46' W 095°05'0 0.0
2018-Feb-15 05:31N 29°46' W 095°05'0 0.0
2018-Feb-15 04:56N 29°46' W 095°05'0 0.0
2018-Feb-15 04:21N 29°46' W 095°05'0 0.0
2018-Feb-15 04:00N 29°46' W 095°05'0 0.0
2018-Feb-15 03:30N 29°46' W 095°05'0 0.0
2018-Feb-14 20:06N 29°46' W 095°05'4 3.0
2018-Feb-14 18:44N 29°44' W 095°09'1 4.1
2018-Feb-14 18:23N 29°45' W 095°10'1 1.5
2018-Feb-14 17:56N 29°45' W 095°11'0 0.0
2018-Feb-14 17:03N 29°45' W 095°11'0 0.0
2018-Feb-14 17:00N 29°45' W 095°11'0 0.3
2018-Feb-14 16:30N 29°45' W 095°11'1 1.3
2018-Feb-14 15:39N 29°45' W 095°10'2 5.2
2018-Feb-14 15:17N 29°44' W 095°08'2 5.3
2018-Feb-14 15:00N 29°45' W 095°06'3 4.8
2018-Feb-14 14:28N 29°47' W 095°04'0 0.0
2018-Feb-14 14:00N 29°47' W 095°04'0 0.0
2018-Feb-14 13:29N 29°47' W 095°04'0 0.0
2018-Feb-14 12:58N 29°47' W 095°04'1 0.1
2018-Feb-14 01:51N 29°46' W 095°05'3 5.9
2018-Feb-14 01:22N 29°44' W 095°02'2 5.5
2018-Feb-14 00:59N 29°42' W 095°01'3 6.1
2018-Feb-14 00:30N 29°40' W 094°58'3 6.7
2018-Feb-14 00:00N 29°37' W 094°57'3 6.5
2018-Feb-13 23:30N 29°34' W 094°55'4 6.9
2018-Feb-13 22:57N 29°31' W 094°53'28 0.7
2018-Feb-12 04:03N 29°37' W 094°21'0 3.8
2018-Feb-12 03:56N 29°37' W 094°21'2 3.7
2018-Feb-12 03:29N 29°38' W 094°19'2 3.7
2018-Feb-12 03:00N 29°39' W 094°17'2 3.7
2018-Feb-12 02:30N 29°39' W 094°15'2 3.7
2018-Feb-12 02:00N 29°40' W 094°13'2 3.2
2018-Feb-12 01:30N 29°41' W 094°12'2 4.4
2018-Feb-12 01:00N 29°42' W 094°09'1 1.4
2018-Feb-12 00:30N 29°42' W 094°09'1 2.3
2018-Feb-12 00:00N 29°43' W 094°07'1 2.7
2018-Feb-11 23:30N 29°44' W 094°06'2 3.9
2018-Feb-11 23:00N 29°45' W 094°05'2 3.9
2018-Feb-11 22:30N 29°46' W 094°03'  
Track history (hours):
 
Tides and Currents Weather Stations Pressure Air Temp Water Temp Dewpoint Dewpoint Depression Visibility Wind Speed Wind Dir Waves Ship Positions

Gene Huffty

Owner: Ingram Barge Company LLC, Nashville, TN. More information available from US FCC via Universal Licensing System and Coast Guard Vessel Documentation Center.

Last reported at 2018-Feb-21 22:04 UTC. Time now 2018-Feb-23 00:49 UTC.
Position N 29°50' W 091°59'.

Length 19 m; draft 3 m.

Type: Towing. MMSI: 367306470.

Date/timePositionNaut miles runAvg speedWind from/ knotsBaromVisibWave heightAir tempDewpointWater temp
2018-Feb-21 22:04N 29°50' W 091°59'0 3.2
2018-Feb-21 22:00N 29°50' W 091°59'2 3.3
2018-Feb-21 21:30N 29°50' W 092°01'2 3.3
2018-Feb-21 21:00N 29°49' W 092°02'2 3.1
2018-Feb-21 20:30N 29°48' W 092°04'2 3.5
2018-Feb-21 20:00N 29°48' W 092°06'1 1.7
2018-Feb-21 19:30N 29°47' W 092°07'0 0.0
2018-Feb-21 19:00N 29°47' W 092°07'0 0.0
2018-Feb-21 18:30N 29°47' W 092°07'0 0.0
2018-Feb-21 18:00N 29°47' W 092°07'0 0.0
2018-Feb-21 17:30N 29°47' W 092°07'0 0.0
2018-Feb-21 17:00N 29°47' W 092°07'0 0.0
2018-Feb-21 16:30N 29°47' W 092°07'0 0.0
2018-Feb-21 16:00N 29°47' W 092°07'0 0.0
2018-Feb-21 15:27N 29°47' W 092°07'0 0.0
2018-Feb-21 14:59N 29°47' W 092°07'0 0.0
2018-Feb-21 14:30N 29°47' W 092°07'0 0.0
2018-Feb-21 14:00N 29°47' W 092°07'0 0.0
2018-Feb-21 13:30N 29°47' W 092°07'0 0.0
2018-Feb-21 13:00N 29°47' W 092°07'0 0.0
2018-Feb-21 12:30N 29°47' W 092°07'0 0.0
2018-Feb-21 12:00N 29°47' W 092°07'0 0.0
2018-Feb-21 11:30N 29°47' W 092°07'0 0.0
2018-Feb-21 11:00N 29°47' W 092°07'0 0.0
2018-Feb-21 10:30N 29°47' W 092°07'0 0.0
2018-Feb-21 10:00N 29°47' W 092°07'0 0.0
2018-Feb-21 09:31N 29°47' W 092°07'0 0.0
2018-Feb-21 09:00N 29°47' W 092°07'0 0.0
2018-Feb-21 08:30N 29°47' W 092°07'0 0.0
2018-Feb-21 08:00N 29°47' W 092°07'0 0.0
2018-Feb-21 07:29N 29°47' W 092°07'0 0.0
2018-Feb-21 07:00N 29°47' W 092°07'0 0.0
2018-Feb-21 06:30N 29°47' W 092°07'0 0.0
2018-Feb-21 06:00N 29°47' W 092°07'0 0.0
2018-Feb-21 05:30N 29°47' W 092°07'0 0.0
2018-Feb-21 05:00N 29°47' W 092°07'0 0.0
2018-Feb-21 04:30N 29°47' W 092°07'1 1.3
2018-Feb-21 04:01N 29°47' W 092°08'2 4.3
2018-Feb-21 03:30N 29°47' W 092°10'2 4.1
2018-Feb-21 03:00N 29°47' W 092°12'1 1.3
2018-Feb-21 02:30N 29°47' W 092°13'2 3.4
2018-Feb-21 02:00N 29°48' W 092°15'2 3.4
2018-Feb-21 01:30N 29°49' W 092°17'2 4.3
2018-Feb-21 01:00N 29°50' W 092°18'2 4.4
2018-Feb-21 00:30N 29°51' W 092°21'36 3.6
2018-Feb-20 14:26N 29°56' W 093°02'1 3.1
2018-Feb-20 14:00N 29°56' W 093°04'2 3.4
2018-Feb-20 13:28N 29°56' W 093°06'2 3.5
2018-Feb-20 13:01N 29°56' W 093°08'2 3.3
2018-Feb-20 12:31N 29°56' W 093°10'2 3.5
2018-Feb-20 12:00N 29°58' W 093°11'2 3.1
2018-Feb-20 11:31N 29°59' W 093°12'1 2.2
2018-Feb-20 11:01N 29°60' W 093°13'1 2.8
2018-Feb-20 10:30N 30°01' W 093°14'1 2.9
2018-Feb-20 10:01N 30°02' W 093°15'1 2.7
2018-Feb-20 09:30N 30°03' W 093°16'2 3.0
2018-Feb-20 09:00N 30°05' W 093°17'1 2.5
2018-Feb-20 08:30N 30°05' W 093°18'1 1.8
2018-Feb-20 07:46N 30°06' W 093°19'0 0.2
2018-Feb-20 07:30N 30°06' W 093°19'0 0.0
2018-Feb-20 07:01N 30°06' W 093°19'0 0.0
2018-Feb-20 06:31N 30°06' W 093°19'0 0.0
2018-Feb-20 06:00N 30°06' W 093°19'0 0.0
2018-Feb-20 05:31N 30°06' W 093°19'0 0.0
2018-Feb-20 05:00N 30°06' W 093°19'2 3.2
2018-Feb-20 04:31N 30°05' W 093°20'1 3.0
2018-Feb-20 04:01N 30°04' W 093°21'1 2.6
2018-Feb-20 03:31N 30°04' W 093°23'1 2.9
2018-Feb-20 03:01N 30°04' W 093°24'2 3.0
2018-Feb-20 02:30N 30°04' W 093°26'1 3.0
2018-Feb-20 02:01N 30°04' W 093°28'2 3.1
2018-Feb-20 01:30N 30°04' W 093°29'1 3.0
2018-Feb-20 01:01N 30°04' W 093°31'2 3.1
2018-Feb-20 00:30N 30°04' W 093°33'1 2.4
2018-Feb-20 00:01N 30°04' W 093°34'2 3.6
2018-Feb-19 23:30N 30°04' W 093°36'2 3.9
2018-Feb-19 23:00N 30°04' W 093°39'2 3.9
2018-Feb-19 22:30N 30°04' W 093°41'2 4.1
2018-Feb-19 22:01N 30°03' W 093°43'2 3.6
2018-Feb-19 21:30N 30°02' W 093°44'2 4.1
2018-Feb-19 21:01N 30°00' W 093°46'2 4.0
2018-Feb-19 20:30N 29°59' W 093°48'2 4.0
2018-Feb-19 20:01N 29°58' W 093°50'1 2.9
2018-Feb-19 19:31N 29°57' W 093°51'2 3.2
2018-Feb-19 19:00N 29°56' W 093°52'0 0.0
2018-Feb-19 18:30N 29°56' W 093°52'0 0.0
2018-Feb-19 18:01N 29°56' W 093°52'0 0.0
2018-Feb-19 17:31N 29°56' W 093°52'0 0.0
2018-Feb-19 17:01N 29°56' W 093°52'0 0.0
2018-Feb-19 16:31N 29°56' W 093°52'0 0.0
2018-Feb-19 16:01N 29°56' W 093°52'0 0.0
2018-Feb-19 15:31N 29°56' W 093°52'0 0.4
2018-Feb-19 15:01N 29°56' W 093°52'3 5.6
2018-Feb-19 14:30N 29°54' W 093°54'3 6.2
2018-Feb-19 14:01N 29°51' W 093°57'3 5.1
2018-Feb-19 13:31N 29°49' W 093°58'2 4.3
2018-Feb-19 13:00N 29°48' W 094°00'2 4.2
2018-Feb-19 12:30N 29°47' W 094°02'2 4.1
2018-Feb-19 12:01N 29°45' W 094°04'2 4.4
2018-Feb-19 11:30N 29°44' W 094°06'2 3.1
2018-Feb-19 11:00N 29°43' W 094°07'0 0.1
2018-Feb-19 10:28N 29°43' W 094°07'0 0.0
2018-Feb-19 10:00N 29°43' W 094°07'0 0.0
2018-Feb-19 09:30N 29°43' W 094°07'0 0.0
2018-Feb-19 09:01N 29°43' W 094°07'0 0.0
2018-Feb-19 08:29N 29°43' W 094°07'0 0.0
2018-Feb-19 08:00N 29°43' W 094°07'0 0.0
2018-Feb-19 07:30N 29°43' W 094°07'0 0.0
2018-Feb-19 06:52N 29°43' W 094°07'0 0.0
2018-Feb-19 06:30N 29°43' W 094°07'0 0.0
2018-Feb-19 06:00N 29°43' W 094°07'0 0.0
2018-Feb-19 05:31N 29°43' W 094°07'0 0.0
2018-Feb-19 05:00N 29°43' W 094°07'0 0.0
2018-Feb-19 04:28N 29°43' W 094°07'0 0.0
2018-Feb-19 03:58N 29°43' W 094°07'0 0.0
2018-Feb-19 03:30N 29°43' W 094°07'0 0.0
2018-Feb-19 03:00N 29°43' W 094°07'0 0.0
2018-Feb-19 02:31N 29°43' W 094°07'0 0.0
2018-Feb-19 02:01N 29°43' W 094°07'0 0.0
2018-Feb-19 01:30N 29°43' W 094°07'0 0.0
2018-Feb-19 01:00N 29°43' W 094°07'0 0.0
2018-Feb-19 00:31N 29°43' W 094°07'0 0.0
2018-Feb-19 00:01N 29°43' W 094°07'0 0.0
2018-Feb-18 23:31N 29°43' W 094°07'1 2.3
2018-Feb-18 23:00N 29°42' W 094°08'2 3.0
2018-Feb-18 22:30N 29°41' W 094°10'2 3.2
2018-Feb-18 22:00N 29°41' W 094°12'2 3.4
2018-Feb-18 21:30N 29°40' W 094°13'2 3.0
2018-Feb-18 21:00N 29°40' W 094°15'2 3.2
2018-Feb-18 20:30N 29°39' W 094°16'2 3.2
2018-Feb-18 20:00N 29°38' W 094°18'2 3.4
2018-Feb-18 19:30N 29°37' W 094°20'2 3.4
2018-Feb-18 19:00N 29°36' W 094°22'2 3.1
2018-Feb-18 18:29N 29°36' W 094°23'1 2.4
2018-Feb-18 17:59N 29°36' W 094°25'1 2.2
2018-Feb-18 17:28N 29°35' W 094°25'1 2.0
2018-Feb-18 17:00N 29°34' W 094°26'0 0.0
2018-Feb-18 16:30N 29°34' W 094°26'0 0.0
2018-Feb-18 15:55N 29°34' W 094°26'0 0.0
2018-Feb-18 15:28N 29°34' W 094°26'0 0.0
2018-Feb-18 12:56N 29°34' W 094°26'0 0.0
2018-Feb-18 09:28N 29°34' W 094°26'0 0.0
2018-Feb-18 08:11N 29°34' W 094°26'0 0.0
2018-Feb-18 07:56N 29°34' W 094°26'0 0.0
2018-Feb-18 07:29N 29°34' W 094°26'0 0.0
2018-Feb-18 02:25N 29°34' W 094°26'0 0.0
2018-Feb-18 01:59N 29°34' W 094°26'0 0.0
2018-Feb-18 01:30N 29°34' W 094°26'0 0.0
2018-Feb-18 01:00N 29°34' W 094°26'0 0.0
2018-Feb-18 00:29N 29°34' W 094°26'0 0.0
2018-Feb-17 23:59N 29°34' W 094°26'0 0.4
2018-Feb-17 23:28N 29°34' W 094°26'1 2.4
2018-Feb-17 23:00N 29°34' W 094°27'2 4.0
2018-Feb-17 22:30N 29°32' W 094°29'2 3.4
2018-Feb-17 21:58N 29°31' W 094°30'2 4.5
2018-Feb-17 21:27N 29°30' W 094°33'11 0.9
2018-Feb-17 08:43N 29°25' W 094°44'0 0.0
2018-Feb-17 05:58N 29°25' W 094°44'0 0.0
2018-Feb-17 04:47N 29°25' W 094°44'0 0.0
2018-Feb-17 04:01N 29°25' W 094°44'0 0.0
2018-Feb-17 03:58N 29°25' W 094°44'0 0.0
2018-Feb-17 02:16N 29°25' W 094°44'0 0.0
2018-Feb-17 01:55N 29°25' W 094°44'0 0.0
2018-Feb-17 01:25N 29°25' W 094°44'1 0.3
2018-Feb-16 23:36N 29°24' W 094°45'0 2.6
2018-Feb-16 23:30N 29°24' W 094°45'2 4.5
2018-Feb-16 22:57N 29°22' W 094°47'11 3.7
2018-Feb-16 20:05N 29°32' W 094°53'0 5.4
2018-Feb-16 20:00N 29°32' W 094°54'3 5.7
2018-Feb-16 19:30N 29°34' W 094°56'3 5.7
2018-Feb-16 19:00N 29°37' W 094°57'2 5.1
2018-Feb-16 18:30N 29°39' W 094°58'3 5.8
2018-Feb-16 18:00N 29°42' W 094°60'3 5.4
2018-Feb-16 17:30N 29°44' W 095°02'3 5.4
2018-Feb-16 17:00N 29°45' W 095°04'2 3.3
2018-Feb-16 16:30N 29°47' W 095°04'0 0.1
2018-Feb-16 15:59N 29°47' W 095°04'2 4.2
2018-Feb-16 15:28N 29°46' W 095°06'1 1.1
2018-Feb-16 15:00N 29°46' W 095°05'2 3.6
2018-Feb-16 14:30N 29°47' W 095°04'0 0.2
2018-Feb-16 12:20N 29°47' W 095°05'0 0.4
2018-Feb-16 11:23N 29°46' W 095°05'0 0.0
2018-Feb-16 10:55N 29°46' W 095°05'0 0.0
2018-Feb-16 09:16N 29°46' W 095°05'0 0.0
2018-Feb-16 09:00N 29°46' W 095°05'0 0.0
2018-Feb-16 07:39N 29°46' W 095°05'0 0.0
2018-Feb-16 07:30N 29°46' W 095°05'0 0.0
2018-Feb-16 07:00N 29°46' W 095°05'0 0.0
2018-Feb-16 06:26N 29°46' W 095°05'0 0.0
2018-Feb-16 05:58N 29°46' W 095°05'0 0.0
2018-Feb-16 05:29N 29°46' W 095°05'0 0.0
2018-Feb-16 05:00N 29°46' W 095°05'0 0.0
2018-Feb-16 04:26N 29°46' W 095°05'0 0.0
2018-Feb-16 04:00N 29°46' W 095°05'0 0.0
2018-Feb-16 03:20N 29°46' W 095°05'0 0.0
2018-Feb-16 02:51N 29°46' W 095°05'0 0.0
2018-Feb-16 02:20N 29°46' W 095°05'0 0.0
2018-Feb-16 02:00N 29°46' W 095°05'0 0.1
2018-Feb-16 01:28N 29°46' W 095°05'0 0.0
2018-Feb-16 00:45N 29°46' W 095°05'0 0.0
2018-Feb-15 19:36N 29°46' W 095°05'0 0.0
2018-Feb-15 10:20N 29°46' W 095°05'0 0.0
2018-Feb-15 09:27N 29°46' W 095°05'0 0.0
2018-Feb-15 08:59N 29°46' W 095°05'0 0.0
2018-Feb-15 08:29N 29°46' W 095°05'0 0.0
2018-Feb-15 07:59N 29°46' W 095°05'0 0.0
2018-Feb-15 07:29N 29°46' W 095°05'0 0.0
2018-Feb-15 06:48N 29°46' W 095°05'0 0.0
2018-Feb-15 06:13N 29°46' W 095°05'0 0.0
2018-Feb-15 06:00N 29°46' W 095°05'0 0.0
2018-Feb-15 05:31N 29°46' W 095°05'0 0.0
2018-Feb-15 04:56N 29°46' W 095°05'0 0.0
2018-Feb-15 04:21N 29°46' W 095°05'0 0.0
2018-Feb-15 04:00N 29°46' W 095°05'0 0.0
2018-Feb-15 03:30N 29°46' W 095°05'0 0.0
2018-Feb-14 20:06N 29°46' W 095°05'4 3.0
2018-Feb-14 18:44N 29°44' W 095°09'1 4.1
2018-Feb-14 18:23N 29°45' W 095°10'1 1.5
2018-Feb-14 17:56N 29°45' W 095°11'0 0.0
2018-Feb-14 17:03N 29°45' W 095°11'0 0.0
2018-Feb-14 17:00N 29°45' W 095°11'0 0.3
2018-Feb-14 16:30N 29°45' W 095°11'1 1.3
2018-Feb-14 15:39N 29°45' W 095°10'2 5.2
2018-Feb-14 15:17N 29°44' W 095°08'2 5.3
2018-Feb-14 15:00N 29°45' W 095°06'3 4.8
2018-Feb-14 14:28N 29°47' W 095°04'0 0.0
2018-Feb-14 14:00N 29°47' W 095°04'0 0.0
2018-Feb-14 13:29N 29°47' W 095°04'0 0.0
2018-Feb-14 12:58N 29°47' W 095°04'1 0.1
2018-Feb-14 01:51N 29°46' W 095°05'3 5.9
2018-Feb-14 01:22N 29°44' W 095°02'2 5.5
2018-Feb-14 00:59N 29°42' W 095°01'3 6.1
2018-Feb-14 00:30N 29°40' W 094°58'3 6.7
2018-Feb-14 00:00N 29°37' W 094°57'3 6.5
2018-Feb-13 23:30N 29°34' W 094°55'4 6.9
2018-Feb-13 22:57N 29°31' W 094°53'28 0.7
2018-Feb-12 04:03N 29°37' W 094°21'0 3.8
2018-Feb-12 03:56N 29°37' W 094°21'2 3.7
2018-Feb-12 03:29N 29°38' W 094°19'2 3.7
2018-Feb-12 03:00N 29°39' W 094°17'2 3.7
2018-Feb-12 02:30N 29°39' W 094°15'2 3.7
2018-Feb-12 02:00N 29°40' W 094°13'2 3.2
2018-Feb-12 01:30N 29°41' W 094°12'2 4.4
2018-Feb-12 01:00N 29°42' W 094°09'1 1.4
2018-Feb-12 00:30N 29°42' W 094°09'1 2.3
2018-Feb-12 00:00N 29°43' W 094°07'1 2.7
2018-Feb-11 23:30N 29°44' W 094°06'2 3.9
2018-Feb-11 23:00N 29°45' W 094°05'2 3.9
2018-Feb-11 22:30N 29°46' W 094°03'  

Dump ship's entire track history